Fort Dodge Regional Airport
KFOD : rendu visible

Aérodrome :











RETROUVEZ-NOUS SUR...

 
LOGIN :

S'inscrire | Disclaimer

   EN    FR    IT 

 









Légende :    VFR   VFR Marginal   IFR   IFR Intensif   IFR Très Intensif
Visi : 
Plafond : 
>= 8 km
>= 3000ft
5 à 8 km
1000 à 3000 ft
1500m à 5 km
500 à 1000 ft
800 à 1500m
200 à 500 ft
< 800m
< 200 ft
Symboles :   Orages  Brouillard  Fortes neiges  Fortes précipitations  Vent > 20 kt






- Altitude de l'aérodrome : 1156 ft
- Code IATA : FOD


KFOD - Fort Dodge Regional

DERNIER METAR :
  • 240956Z AUTO 36007KT 3SM BR OVC006 M02/M03 A2996 RMK AO2 SLP188 T10221028 FZRANO

METARs EXPIRÉS :
  • 240856Z AUTO 36008KT 3SM BR OVC006 M02/M03 A2997 RMK AO2 SLP189 T10171028 56006 FZRANO
  • 240756Z AUTO 36006KT 4SM BR OVC008 M02/M02 A2997 RMK AO2 SLP191 T10171022 FZRANO

TAF KFOD
Valide du 24 à 06h jusqu'au 25 à 06h UTC


240520Z 2406/2506 02007KT 4SM BR OVC008
FM240900 36007KT 2SM BR OVC004
FM242100 35011KT 3SM BR OVC006
FM250300 33009KT 5SM BR OVC008



MET'MAP, la Météo Aéronautique d'un coup d'oeil ! - Copyright ORBIFLY Décembre 2007 - Disclaimer

ORBIFLY MET'MAP TEAM :

Programmation & Développement : Alexandra Zaïnal
Sur une idée originale de : Baudouin d'Aumeries
Assistance à la programmation : Marc-Olivier Méhu
Soutien technique & logistique : Manuel Goepfert

Contact : metmap@orbifly.com




SOURCES & CREDITS :

   NOAA       Earth
Advisory